Time;durP1;ratioP1;P1;durP2;ratioP2;P2;SDS_P1;SDS_P2;PMS_P1;PMS_P2;Temp;Humidity;BMP_temperature;BMP_pressure;BME280_temperature;BME280_humidity;BME280_pressure;Samples;Min_cycle;Max_cycle;Signal;HPM_P1;HPM_P2
2022/09/17 00:01:16;;;;;;;0.60;0.50;;;;;;;17.29;58.07;99790.22;5046030;28;20040;-61
2022/09/17 00:03:44;;;;;;;2.58;1.73;;;;;;;17.27;57.79;99790.38;5026166;28;20045;-61
2022/09/17 00:06:11;;;;;;;0.63;0.60;;;;;;;17.25;57.93;99800.28;5048660;28;20047;-60
2022/09/17 00:08:39;;;;;;;1.45;0.95;;;;;;;17.27;57.99;99792.16;5018188;28;20041;-61
2022/09/17 00:11:14;;;;;;;0.80;0.60;;;;;;;17.27;57.94;99792.16;5046556;28;20037;-60
2022/09/17 00:13:41;;;;;;;0.70;0.68;;;;;;;17.25;58.08;99795.00;5052460;28;20044;-61
2022/09/17 00:16:07;;;;;;;1.75;0.70;;;;;;;17.26;57.94;99791.34;5032766;28;20052;-60
2022/09/17 00:18:35;;;;;;;3.88;1.73;;;;;;;17.26;57.77;99793.16;5049896;28;20040;-60
2022/09/17 00:21:02;;;;;;;0.77;0.63;;;;;;;17.23;57.85;99790.84;5044208;28;20221;-61
2022/09/17 00:23:28;;;;;;;0.65;0.47;;;;;;;17.16;57.77;99791.44;5043537;28;20495;-61
2022/09/17 00:25:54;;;;;;;0.60;0.60;;;;;;;17.17;58.04;99808.94;5046260;28;20060;-61
2022/09/17 00:28:26;;;;;;;0.80;0.60;;;;;;;17.13;57.77;99812.88;5034894;28;20036;-61
2022/09/17 00:30:54;;;;;;;2.35;0.80;;;;;;;17.18;57.67;99801.84;5028390;28;20498;-60
2022/09/17 00:33:20;;;;;;;1.63;0.68;;;;;;;17.18;57.62;99804.47;5016771;28;20029;-60
2022/09/17 00:35:58;;;;;;;1.00;0.68;;;;;;;17.17;57.74;99808.13;5017919;28;20045;-60
2022/09/17 00:38:24;;;;;;;1.00;0.57;;;;;;;17.14;57.49;99813.69;5047747;28;20039;-62
2022/09/17 00:40:50;;;;;;;3.33;0.85;;;;;;;17.16;57.72;99809.09;5031754;28;20033;-60
2022/09/17 00:43:40;;;;;;;1.00;0.60;;;;;;;17.12;57.53;99807.75;5050756;28;20037;-61
2022/09/17 00:46:23;;;;;;;1.15;0.75;;;;;;;17.11;57.43;99812.19;5029752;28;20044;-61
2022/09/17 00:48:53;;;;;;;1.30;0.70;;;;;;;17.12;57.50;99813.84;5051405;28;20036;-61
2022/09/17 00:51:26;;;;;;;0.85;0.50;;;;;;;17.15;57.47;99815.38;5047325;28;20406;-60
2022/09/17 00:53:56;;;;;;;4.35;1.25;;;;;;;17.10;57.47;99815.81;5032001;28;20037;-60
2022/09/17 00:56:30;;;;;;;1.33;0.80;;;;;;;17.09;57.59;99813.34;5030529;28;20509;-61
2022/09/17 00:58:57;;;;;;;3.95;1.55;;;;;;;17.10;57.53;99818.47;5045145;28;20037;-59
2022/09/17 01:01:25;;;;;;;2.90;0.68;;;;;;;17.07;57.47;99810.84;5032304;28;20028;-60
2022/09/17 01:03:54;;;;;;;3.25;1.13;;;;;;;17.08;57.46;99811.66;5031617;28;20040;-60
2022/09/17 01:06:49;;;;;;;0.73;0.65;;;;;;;17.09;57.46;99816.78;5035714;28;20403;-60
2022/09/17 01:09:39;;;;;;;1.35;0.77;;;;;;;17.07;57.57;99810.84;5040560;28;20032;-60
2022/09/17 01:12:29;;;;;;;0.90;0.80;;;;;;;17.06;57.64;99819.72;5048252;28;20033;-60
2022/09/17 01:15:34;;;;;;;1.35;0.70;;;;;;;17.08;57.53;99814.31;5047672;28;20391;-60
2022/09/17 01:18:25;;;;;;;3.03;0.77;;;;;;;17.08;57.56;99809.88;5007872;28;20098;-60
2022/09/17 01:21:06;;;;;;;1.25;0.70;;;;;;;17.07;57.61;99824.03;5031481;28;20032;-60
2022/09/17 01:23:57;;;;;;;1.95;0.73;;;;;;;17.08;57.54;99816.94;5030469;28;20051;-60
2022/09/17 01:26:41;;;;;;;2.10;0.80;;;;;;;17.09;57.70;99816.78;5031692;28;20043;-59
2022/09/17 01:29:29;;;;;;;0.70;0.50;;;;;;;17.10;57.71;99821.09;5021398;28;20068;-60
2022/09/17 01:32:11;;;;;;;0.57;0.50;;;;;;;17.08;57.70;99815.16;5050415;28;20501;-60
2022/09/17 01:34:50;;;;;;;1.48;0.68;;;;;;;17.07;57.92;99820.56;5033176;28;20029;-60
2022/09/17 01:37:29;;;;;;;2.47;0.70;;;;;;;17.07;57.77;99818.75;5026421;28;20475;-60
2022/09/17 01:40:01;;;;;;;1.58;0.88;;;;;;;17.07;57.75;99815.31;5005020;28;20048;-60
2022/09/17 01:42:30;;;;;;;;;;;;;;;17.02;57.53;99821.03;5033441;28;20044;-60
2022/09/17 01:45:26;;;;;;;2.03;0.75;;;;;;;16.97;57.84;99824.13;5008921;28;20391;-60
2022/09/17 01:47:57;;;;;;;1.15;0.65;;;;;;;17.00;57.76;99818.53;5047198;28;20044;-60
2022/09/17 01:50:28;;;;;;;0.85;0.60;;;;;;;17.01;57.86;99822.00;5029298;28;20044;-60
2022/09/17 01:52:56;;;;;;;1.50;0.68;;;;;;;16.97;57.70;99826.75;5047670;28;20048;-60
2022/09/17 01:55:31;;;;;;;1.42;0.95;;;;;;;16.98;57.60;99827.59;5045559;28;20025;-60
2022/09/17 01:58:06;;;;;;;1.00;0.70;;;;;;;16.95;57.73;99815.53;5026810;28;20052;-59
2022/09/17 02:00:33;;;;;;;5.95;1.10;;;;;;;16.95;57.29;99815.53;5045836;28;20037;-60
2022/09/17 02:03:16;;;;;;;1.30;0.85;;;;;;;16.95;57.37;99818.16;5031555;28;20040;-60
2022/09/17 02:05:47;;;;;;;2.50;0.80;;;;;;;16.96;57.48;99821.63;5032388;28;20509;-60
2022/09/17 02:08:19;;;;;;;2.38;1.10;;;;;;;16.94;57.55;99819.13;5049350;28;20037;-60
2022/09/17 02:10:51;;;;;;;1.42;1.00;;;;;;;16.95;57.23;99822.63;5027587;28;20033;-60
2022/09/17 02:13:43;;;;;;;0.93;0.60;;;;;;;16.91;57.32;99827.38;5039990;28;20040;-60
2022/09/17 02:16:16;;;;;;;1.52;0.68;;;;;;;16.93;57.22;99821.94;5025735;28;20041;-60
2022/09/17 02:18:49;;;;;;;0.90;0.65;;;;;;;16.94;57.33;99824.41;5031889;28;20045;-60
2022/09/17 02:21:30;;;;;;;2.97;0.80;;;;;;;16.91;57.36;99823.88;5029937;28;20043;-59
2022/09/17 02:24:02;;;;;;;2.88;1.17;;;;;;;16.90;57.17;99827.53;5050578;28;20033;-60
2022/09/17 02:26:29;;;;;;;2.40;0.70;;;;;;;16.89;57.19;99825.84;5044725;28;20040;-59
2022/09/17 02:29:07;;;;;;;3.67;0.98;;;;;;;16.89;56.97;99833.78;5016500;28;20028;-59
2022/09/17 02:31:33;;;;;;;0.90;0.70;;;;;;;16.92;57.09;99833.47;5013279;28;20043;-59
2022/09/17 02:34:01;;;;;;;0.77;0.60;;;;;;;16.88;57.28;99835.59;5032767;28;20036;-60
2022/09/17 02:36:28;;;;;;;2.00;0.90;;;;;;;16.87;56.86;99833.09;5011442;28;20052;-59
2022/09/17 02:39:00;;;;;;;3.28;0.75;;;;;;;16.86;57.30;99821.72;5000605;28;20048;-60
2022/09/17 02:41:50;;;;;;;1.63;0.80;;;;;;;16.86;57.08;99820.88;5031912;28;20410;-60
2022/09/17 02:44:29;;;;;;;1.80;1.02;;;;;;;16.87;56.93;99827.81;5025191;28;20037;-60
2022/09/17 02:47:07;;;;;;;3.63;0.70;;;;;;;16.86;57.02;99820.88;5043175;28;20041;-60
2022/09/17 02:49:59;;;;;;;4.47;1.02;;;;;;;16.83;57.10;99828.09;5049589;28;20419;-60
2022/09/17 02:52:58;;;;;;;2.53;0.90;;;;;;;16.84;56.81;99834.22;5024075;28;20067;-60
2022/09/17 02:55:50;;;;;;;3.83;1.02;;;;;;;16.83;56.74;99838.63;5014081;28;20060;-60
2022/09/17 02:58:16;;;;;;;0.95;0.65;;;;;;;16.83;56.87;99830.72;5045844;28;20048;-60
2022/09/17 03:00:43;;;;;;;1.60;0.70;;;;;;;16.81;56.81;99823.97;5049016;28;20029;-59
2022/09/17 03:03:34;;;;;;;0.63;0.60;;;;;;;16.81;57.04;99826.59;5049584;28;20398;-60
2022/09/17 03:06:03;;;;;;;1.90;0.80;;;;;;;16.79;56.82;99825.88;5047431;28;20032;-60
2022/09/17 03:08:39;;;;;;;1.95;0.70;;;;;;;16.80;56.92;99828.38;5033570;28;20037;-60
2022/09/17 03:11:08;;;;;;;1.27;1.13;;;;;;;16.76;57.04;99821.75;5039243;28;20037;-60
2022/09/17 03:13:35;;;;;;;1.90;1.70;;;;;;;16.79;56.81;99829.38;5033567;28;20403;-60
2022/09/17 03:16:07;;;;;;;1.55;1.30;;;;;;;16.78;57.01;99825.06;5038102;28;20036;-60
2022/09/17 03:18:36;;;;;;;1.80;0.90;;;;;;;16.81;56.84;99831.88;5031347;28;20036;-60
2022/09/17 03:21:02;;;;;;;3.33;1.17;;;;;;;16.76;56.95;99829.69;5029827;28;20029;-60
2022/09/17 03:23:28;;;;;;;1.92;0.70;;;;;;;16.74;57.02;99833.41;5049441;28;20040;-60
2022/09/17 03:25:54;;;;;;;3.20;1.30;;;;;;;16.73;57.16;99834.41;5009767;28;20037;-60
2022/09/17 03:28:21;;;;;;;1.15;0.90;;;;;;;16.71;57.06;99831.13;5047109;28;21686;-60
2022/09/17 03:30:49;;;;;;;2.35;0.90;;;;;;;16.74;57.35;99833.41;5047853;28;20025;-60
2022/09/17 03:33:16;;;;;;;1.02;0.68;;;;;;;16.77;57.15;99839.25;5031302;28;20390;-60
2022/09/17 03:35:45;;;;;;;5.32;1.45;;;;;;;16.75;57.24;99829.81;5027132;28;20426;-60
2022/09/17 03:38:18;;;;;;;2.03;1.10;;;;;;;16.77;57.06;99835.78;5040709;28;20040;-60
2022/09/17 03:40:56;;;;;;;1.30;0.80;;;;;;;16.76;57.24;99827.03;5012987;28;20482;-60
2022/09/17 03:43:24;;;;;;;1.52;0.90;;;;;;;16.73;57.54;99827.34;5036098;28;20053;-66
2022/09/17 03:45:55;;;;;;;0.82;0.70;;;;;;;16.77;57.29;99825.22;5031656;28;20036;-66
2022/09/17 03:48:22;;;;;;;2.60;1.33;;;;;;;16.77;57.31;99826.06;5044068;28;20037;-66
2022/09/17 03:50:50;;;;;;;1.50;0.85;;;;;;;16.78;57.59;99834.81;5049945;28;20043;-66
2022/09/17 03:53:16;;;;;;;2.78;1.40;;;;;;;16.75;57.44;99845.66;5049939;28;20039;-66
2022/09/17 03:55:45;;;;;;;1.48;0.90;;;;;;;16.71;57.61;99845.13;5036795;28;20036;-66
2022/09/17 03:58:13;;;;;;;2.30;1.27;;;;;;;16.72;57.49;99841.50;5049013;28;20032;-66
2022/09/17 04:00:44;;;;;;;7.20;0.98;;;;;;;16.73;57.41;99847.59;5053021;28;20043;-66
2022/09/17 04:03:12;;;;;;;2.10;0.90;;;;;;;16.73;57.66;99843.16;5071455;28;20024;-66
2022/09/17 04:05:38;;;;;;;1.05;0.95;;;;;;;16.76;57.60;99849.94;5067483;28;20047;-66
2022/09/17 04:08:09;;;;;;;2.67;1.35;;;;;;;16.72;57.75;99854.69;5054964;28;20028;-66
2022/09/17 04:10:37;;;;;;;3.10;0.95;;;;;;;16.73;57.68;99856.34;5072065;28;20044;-66
2022/09/17 04:13:08;;;;;;;1.80;1.05;;;;;;;16.73;57.69;99853.69;5071563;28;20036;-66
2022/09/17 04:15:37;;;;;;;1.33;0.93;;;;;;;16.71;57.75;99846.94;5050135;28;20040;-66
2022/09/17 04:18:03;;;;;;;1.52;0.98;;;;;;;16.69;57.48;99857.63;5072280;28;20024;-66
2022/09/17 04:20:30;;;;;;;1.27;1.00;;;;;;;16.68;57.29;99853.31;5071425;28;20430;-66
2022/09/17 04:22:56;;;;;;;1.55;1.00;;;;;;;16.72;57.62;99845.94;5072185;28;20556;-66
2022/09/17 04:25:22;;;;;;;1.88;1.02;;;;;;;16.74;57.68;99843.97;5051393;28;20032;-66
2022/09/17 04:27:49;;;;;;;4.00;1.13;;;;;;;16.72;57.41;99845.94;5055118;28;20033;-66
2022/09/17 04:30:18;;;;;;;3.42;1.10;;;;;;;16.72;57.38;99849.44;5050439;28;20481;-66
2022/09/17 04:32:45;;;;;;;1.33;0.93;;;;;;;16.71;57.49;99860.94;5022059;28;20069;-66
2022/09/17 04:35:14;;;;;;;2.92;1.10;;;;;;;16.74;57.47;99858.00;5051659;28;20028;-66
2022/09/17 04:37:44;;;;;;;1.60;1.05;;;;;;;16.75;57.63;99866.75;5054039;28;20486;-66
2022/09/17 04:40:11;;;;;;;6.05;1.63;;;;;;;16.74;57.73;99860.66;5072152;28;20033;-66
2022/09/17 04:42:39;;;;;;;3.65;1.50;;;;;;;16.72;57.34;99867.88;5069996;28;20033;-66
2022/09/17 04:45:08;;;;;;;3.63;1.02;;;;;;;16.72;57.68;99875.81;5051391;28;20401;-66
2022/09/17 04:47:39;;;;;;;1.17;0.98;;;;;;;16.70;57.61;99869.00;5036001;28;20048;-66
2022/09/17 04:50:07;;;;;;;1.10;0.88;;;;;;;16.72;57.56;99873.16;5069841;28;20036;-66
2022/09/17 04:52:41;;;;;;;1.00;0.80;;;;;;;16.74;57.62;99875.63;5040452;28;20036;-66
2022/09/17 04:55:10;;;;;;;1.73;0.95;;;;;;;16.71;57.57;99866.22;5050532;28;20043;-66
2022/09/17 04:57:45;;;;;;;1.63;1.13;;;;;;;16.69;57.45;99875.25;5053781;28;20033;-66
2022/09/17 05:00:16;;;;;;;4.93;1.02;;;;;;;16.69;57.26;99873.44;5049000;28;20048;-66
2022/09/17 05:02:45;;;;;;;2.33;1.38;;;;;;;16.70;57.41;99879.53;5056413;28;20033;-66
2022/09/17 05:05:17;;;;;;;4.75;1.63;;;;;;;16.70;57.38;99883.00;5064665;28;20047;-66
2022/09/17 05:07:45;;;;;;;4.47;1.10;;;;;;;16.73;57.59;99882.72;5033697;28;20040;-66
2022/09/17 05:10:14;;;;;;;2.80;1.88;;;;;;;16.73;57.53;99881.91;5070910;28;20047;-65
2022/09/17 05:12:42;;;;;;;0.95;0.85;;;;;;;16.70;57.28;99882.19;5056918;28;20051;-66
2022/09/17 05:15:13;;;;;;;2.05;0.98;;;;;;;16.70;57.21;99887.47;5033765;28;20041;-66
2022/09/17 05:17:39;;;;;;;3.78;1.20;;;;;;;16.70;57.28;99879.53;5051185;28;20033;-66
2022/09/17 05:20:08;;;;;;;3.75;1.33;;;;;;;16.68;57.36;99887.59;5053346;28;20043;-66
2022/09/17 05:22:34;;;;;;;1.30;0.98;;;;;;;16.65;57.31;99885.25;5035713;28;20040;-66
2022/09/17 05:25:03;;;;;;;2.00;1.05;;;;;;;16.66;57.16;99891.38;5052066;28;20051;-66
2022/09/17 05:27:31;;;;;;;3.58;1.13;;;;;;;16.66;57.39;99892.19;5052138;28;20044;-66
2022/09/17 05:30:00;;;;;;;1.95;0.98;;;;;;;16.68;57.55;99892.06;5052557;28;20042;-65
2022/09/17 05:32:31;;;;;;;6.72;1.50;;;;;;;16.68;57.78;99898.16;5031714;28;20498;-64
2022/09/17 05:34:59;;;;;;;2.35;1.10;;;;;;;16.66;57.59;99902.75;5069473;28;20024;-64
2022/09/17 05:37:25;;;;;;;1.00;0.90;;;;;;;16.67;57.65;99907.06;5020046;28;20036;-64
2022/09/17 05:39:54;;;;;;;4.40;1.30;;;;;;;16.69;57.91;99910.38;5051684;28;20041;-64
2022/09/17 05:42:22;;;;;;;2.67;1.30;;;;;;;16.71;57.97;99921.59;5049283;28;20032;-65
2022/09/17 05:44:53;;;;;;;3.00;0.90;;;;;;;16.69;58.29;99923.56;5068135;28;20496;-65
2022/09/17 05:47:24;;;;;;;1.45;1.13;;;;;;;16.66;58.33;99918.56;5029286;28;20028;-65
2022/09/17 05:49:52;;;;;;;9.38;1.58;;;;;;;16.67;58.31;99919.41;5067019;28;20043;-66
2022/09/17 05:52:18;;;;;;;2.53;1.00;;;;;;;16.69;58.37;99923.56;5063003;28;20052;-65
2022/09/17 05:54:47;;;;;;;2.85;1.00;;;;;;;16.68;58.31;99926.34;5033563;28;20032;-65
2022/09/17 05:57:15;;;;;;;3.85;0.88;;;;;;;16.64;58.42;99929.25;5036442;28;20508;-66
2022/09/17 05:59:49;;;;;;;2.13;1.33;;;;;;;16.62;58.71;99930.41;5051307;28;20043;-66
2022/09/17 06:02:15;;;;;;;3.85;1.75;;;;;;;16.65;58.79;99935.34;5051406;28;20043;-66
2022/09/17 06:04:41;;;;;;;0.98;0.80;;;;;;;16.66;58.84;99931.75;5066702;28;20051;-66
2022/09/17 06:07:08;;;;;;;3.08;1.80;;;;;;;16.65;58.92;99927.44;5047693;28;20033;-66
2022/09/17 06:09:36;;;;;;;1.10;1.00;;;;;;;16.62;59.22;99922.50;5068998;28;20051;-66
2022/09/17 06:12:06;;;;;;;1.73;1.05;;;;;;;16.62;59.12;99933.88;5034476;28;20029;-66
2022/09/17 06:14:32;;;;;;;1.95;1.13;;;;;;;16.63;59.00;99934.69;5064382;28;20043;-65
2022/09/17 06:16:59;;;;;;;1.15;1.05;;;;;;;16.61;59.06;99940.09;5068529;28;20393;-66
2022/09/17 06:19:26;;;;;;;1.48;1.30;;;;;;;16.59;59.37;99939.41;5070126;28;20036;-66
2022/09/17 06:21:52;;;;;;;6.20;1.33;;;;;;;16.63;59.15;99945.22;5069074;28;20518;-66
2022/09/17 06:24:23;;;;;;;3.17;1.15;;;;;;;16.61;59.30;99937.47;5055898;28;20040;-66
2022/09/17 06:26:54;;;;;;;;;;;;;;;16.63;59.21;99935.50;5062825;28;20032;-66
2022/09/17 06:29:23;;;;;;;2.72;1.05;;;;;;;16.63;59.24;99939.97;5050724;28;19913;-66
2022/09/17 06:31:51;;;;;;;8.05;1.17;;;;;;;16.64;59.25;99939.81;5060044;28;20410;-65
2022/09/17 06:34:20;;;;;;;1.80;1.50;;;;;;;16.71;59.20;99945.34;5039379;28;20517;-66
2022/09/17 06:36:50;;;;;;;2.05;1.55;;;;;;;16.72;59.43;99941.72;5071092;28;20048;-66
2022/09/17 06:39:16;;;;;;;2.38;0.93;;;;;;;16.70;59.46;99954.22;5043968;28;20037;-66
2022/09/17 06:41:45;;;;;;;1.67;1.02;;;;;;;16.68;59.59;99952.72;5051117;28;20417;-65
2022/09/17 06:44:17;;;;;;;3.23;1.50;;;;;;;16.68;59.90;99952.72;5042839;28;20619;-66
2022/09/17 06:46:48;;;;;;;2.25;1.30;;;;;;;16.67;59.69;99954.53;5069072;28;20283;-66
2022/09/17 06:49:17;;;;;;;2.97;1.35;;;;;;;16.64;59.93;99955.63;5069614;28;20236;-66
2022/09/17 06:51:44;;;;;;;2.28;1.40;;;;;;;16.67;60.06;99953.66;5047698;28;20056;-66
2022/09/17 06:54:12;;;;;;;1.73;1.17;;;;;;;16.66;60.00;99950.22;5067606;28;20029;-66
2022/09/17 06:56:43;;;;;;;1.40;1.30;;;;;;;16.70;60.02;99948.94;5033966;28;20036;-66
2022/09/17 06:59:14;;;;;;;2.92;1.85;;;;;;;16.71;59.70;99950.59;5036653;28;20043;-66
2022/09/17 07:01:40;;;;;;;4.40;1.45;;;;;;;16.74;59.71;99947.69;5055609;28;20043;-66
2022/09/17 07:04:06;;;;;;;7.60;1.70;;;;;;;16.76;59.54;99952.81;5045191;28;20037;-65
2022/09/17 07:06:32;;;;;;;2.67;1.50;;;;;;;16.74;59.50;99950.31;5038835;28;20497;-65
2022/09/17 07:08:59;;;;;;;1.40;1.30;;;;;;;16.81;59.94;99956.66;5070449;28;20032;-65
2022/09/17 07:11:30;;;;;;;2.05;1.13;;;;;;;16.79;59.93;99960.41;5051487;28;20033;-64
2022/09/17 07:13:56;;;;;;;3.78;1.30;;;;;;;16.76;59.84;99953.63;5037516;28;20041;-64
2022/09/17 07:16:31;;;;;;;3.13;1.40;;;;;;;16.77;59.99;99951.81;5047971;28;20751;-65
2022/09/17 07:18:58;;;;;;;3.28;1.67;;;;;;;16.81;60.44;99956.66;5059438;28;20040;-63
2022/09/17 07:21:24;;;;;;;2.38;1.15;;;;;;;16.81;60.27;99959.28;5069482;28;20371;-64
2022/09/17 07:23:56;;;;;;;2.22;1.30;;;;;;;16.84;60.32;99963.47;5067589;28;20063;-64
2022/09/17 07:26:23;;;;;;;7.70;2.22;;;;;;;16.85;60.72;99961.69;5040467;28;20032;-64
2022/09/17 07:28:54;;;;;;;8.73;1.60;;;;;;;16.81;60.51;99961.94;5072322;28;20040;-65
2022/09/17 07:31:20;;;;;;;4.85;1.30;;;;;;;16.80;60.54;99957.63;5036791;28;20043;-64
2022/09/17 07:33:48;;;;;;;3.08;1.40;;;;;;;16.74;60.62;99963.50;5071585;28;20504;-64
2022/09/17 07:36:17;;;;;;;4.05;1.52;;;;;;;16.83;60.62;99965.25;5071794;28;20029;-64
2022/09/17 07:38:46;;;;;;;2.50;1.85;;;;;;;16.97;60.82;99971.84;5072718;28;20048;-65
2022/09/17 07:41:17;;;;;;;4.15;1.55;;;;;;;16.97;60.74;99979.78;5051696;28;20032;-65
2022/09/17 07:43:46;;;;;;;5.10;1.88;;;;;;;16.92;60.81;99968.84;5050628;28;20040;-65
2022/09/17 07:46:18;;;;;;;2.40;1.50;;;;;;;16.89;60.89;99973.56;5072911;28;20040;-65
2022/09/17 07:48:45;;;;;;;2.22;1.52;;;;;;;17.20;62.89;99976.72;5054961;28;20029;-66
2022/09/17 07:51:22;;;;;;;1.90;1.10;;;;;;;17.42;61.45;99975.44;5071912;28;20473;-66
2022/09/17 07:53:56;;;;;;;2.55;1.20;;;;;;;17.46;62.00;99971.53;5054756;28;20040;-65
2022/09/17 07:56:24;;;;;;;2.05;1.40;;;;;;;17.53;61.58;99979.66;5063190;28;20025;-65
2022/09/17 07:58:53;;;;;;;3.58;1.35;;;;;;;17.66;61.04;99981.91;5033296;28;20037;-66
2022/09/17 08:01:22;;;;;;;3.88;1.40;;;;;;;17.78;60.40;99978.06;5032045;28;20264;-66
2022/09/17 08:03:51;;;;;;;8.07;1.38;;;;;;;17.80;60.14;99978.75;5069461;28;20024;-65
2022/09/17 08:06:29;;;;;;;6.35;1.65;;;;;;;17.75;60.18;99978.38;5074312;28;20036;-66
2022/09/17 08:08:58;;;;;;;8.38;1.67;;;;;;;17.68;60.40;99986.06;5069930;28;20036;-65
2022/09/17 08:11:27;;;;;;;1.45;1.30;;;;;;;17.67;60.48;99980.94;5067803;28;20047;-66
2022/09/17 08:13:53;;;;;;;3.75;1.35;;;;;;;17.70;60.47;99988.56;5071238;28;20039;-66
2022/09/17 08:16:21;;;;;;;3.17;1.40;;;;;;;17.71;60.26;99985.78;5066977;28;20039;-66
2022/09/17 08:18:50;;;;;;;2.10;1.15;;;;;;;17.73;60.23;99993.50;5058153;28;20036;-66
2022/09/17 08:21:19;;;;;;;10.80;1.45;;;;;;;17.74;60.03;99995.19;5075707;28;20482;-66
2022/09/17 08:23:46;;;;;;;3.35;1.65;;;;;;;17.76;60.09;99990.56;5068790;28;20405;-66
2022/09/17 08:26:23;;;;;;;6.15;1.33;;;;;;;17.84;59.63;99995.94;5057267;28;20028;-66
2022/09/17 08:28:53;;;;;;;3.83;1.50;;;;;;;17.82;59.93;99992.63;5070761;28;20037;-65
2022/09/17 08:31:25;;;;;;;4.00;1.63;;;;;;;17.82;59.84;99994.44;5066227;28;20036;-65
2022/09/17 08:33:53;;;;;;;6.05;2.13;;;;;;;17.79;59.92;99987.63;5042452;28;20040;-65
2022/09/17 08:36:27;;;;;;;2.25;1.42;;;;;;;17.83;59.87;99999.56;5069594;28;20028;-65
2022/09/17 08:38:54;;;;;;;4.43;1.25;;;;;;;17.88;59.83;100001.75;5071634;28;20528;-69
2022/09/17 08:41:24;;;;;;;3.35;1.13;;;;;;;17.87;59.71;100000.13;5056398;28;20028;-65
2022/09/17 08:44:02;;;;;;;3.72;1.27;;;;;;;17.90;59.80;100002.44;5054390;28;20040;-66
2022/09/17 08:46:35;;;;;;;2.72;1.67;;;;;;;18.00;59.44;100000.53;5038881;28;20045;-65
2022/09/17 08:49:29;;;;;;;2.03;1.23;;;;;;;18.17;59.44;99998.81;5070145;28;20029;-65
2022/09/17 08:52:08;;;;;;;;;;;;;;;18.60;61.34;100005.03;5049941;28;20041;-65
2022/09/17 08:54:50;;;;;;;13.05;2.20;;;;;;;18.68;61.16;99996.28;5038527;28;19912;-65
2022/09/17 08:57:53;;;;;;;7.50;1.80;;;;;;;18.65;62.58;100058.28;5069279;28;20037;-77
2022/09/17 09:04:31;;;;;;;5.22;2.75;;;;;;;-145.49;100.00;62790.56;5083819;27;20771;-70
2022/09/17 09:07:07;;;;;;;5.35;2.58;;;;;;;-145.49;100.00;62790.56;5098701;28;20036;-72
2022/09/17 09:09:46;;;;;;;5.10;2.65;;;;;;;-145.49;100.00;62790.56;5071607;28;20044;-69
2022/09/17 09:12:25;;;;;;;4.65;2.00;;;;;;;-145.49;100.00;62790.56;5042656;28;20033;-76
2022/09/17 09:15:01;;;;;;;6.32;2.63;;;;;;;-145.49;100.00;62790.56;5062483;28;20039;-76
2022/09/17 09:17:39;;;;;;;6.47;2.38;;;;;;;-145.49;100.00;62790.56;5058837;28;20039;-76
2022/09/17 09:20:28;;;;;;;7.35;3.20;;;;;;;-145.49;100.00;62790.56;5056951;28;20044;-77
2022/09/17 09:23:01;;;;;;;7.00;3.10;;;;;;;-145.49;100.00;62790.56;5060839;28;20047;-77
2022/09/17 09:25:43;;;;;;;6.30;2.20;;;;;;;-145.49;100.00;62790.56;5058860;28;20033;-77
2022/09/17 09:28:32;;;;;;;6.05;2.10;;;;;;;-145.49;100.00;62790.56;5074220;28;20032;-77
2022/09/17 09:31:14;;;;;;;4.70;2.40;;;;;;;-145.49;100.00;62790.56;5064279;28;20505;-78
2022/09/17 09:33:47;;;;;;;4.63;2.95;;;;;;;-145.49;100.00;62790.56;5057898;28;20029;-76
2022/09/17 09:36:20;;;;;;;5.32;2.50;;;;;;;-145.49;100.00;62790.56;5058339;28;20518;-77
2022/09/17 09:38:49;;;;;;;11.20;2.92;;;;;;;-145.49;100.00;62790.56;5063413;28;20025;-76
2022/09/17 09:41:35;;;;;;;4.45;2.50;;;;;;;-145.49;100.00;62790.56;5074698;22;20047;-76
2022/09/17 09:44:05;;;;;;;;;;;;;;;-145.49;100.00;62790.56;5042437;28;20395;-78
2022/09/17 09:46:43;;;;;;;7.07;3.88;;;;;;;-145.49;100.00;62790.56;5043918;28;19916;-80
2022/09/17 09:49:18;;;;;;;6.50;1.95;;;;;;;-145.49;100.00;62790.56;5037578;28;20044;-80
2022/09/17 09:52:02;;;;;;;7.15;4.05;;;;;;;-145.49;100.00;62790.56;5044262;28;20045;-79
2022/09/17 09:55:01;;;;;;;8.27;3.08;;;;;;;-145.49;100.00;62790.56;5043029;28;20041;-80
2022/09/17 09:57:40;;;;;;;6.78;2.53;;;;;;;-145.49;100.00;62790.56;5040468;28;20786;-80
2022/09/17 10:00:28;;;;;;;10.73;3.95;;;;;;;-145.49;100.00;62790.56;5044830;28;20056;-80
2022/09/17 10:03:07;;;;;;;8.25;2.22;;;;;;;-145.49;100.00;62790.56;5045119;28;20037;-79
2022/09/17 10:05:33;;;;;;;4.20;2.00;;;;;;;-145.49;100.00;62790.56;5043120;28;20048;-80
2022/09/17 10:08:09;;;;;;;2.35;1.73;;;;;;;-145.49;100.00;62790.56;5057561;28;20064;-80
2022/09/17 10:10:52;;;;;;;5.05;2.15;;;;;;;-145.49;100.00;62790.56;5040382;28;20051;-80
2022/09/17 10:13:19;;;;;;;4.28;2.78;;;;;;;-145.49;100.00;62790.56;5040709;28;20041;-80
2022/09/17 10:15:50;;;;;;;5.95;1.80;;;;;;;-145.49;100.00;62790.56;5029046;28;20041;-80
2022/09/17 10:18:17;;;;;;;3.53;2.05;;;;;;;-145.49;100.00;62790.56;5029973;28;20042;-79
2022/09/17 10:21:00;;;;;;;5.00;1.30;;;;;;;-145.49;100.00;62790.56;5028484;28;20045;-79
2022/09/17 10:23:36;;;;;;;4.25;1.70;;;;;;;-145.49;100.00;62790.56;5027257;28;20036;-79
2022/09/17 10:26:07;;;;;;;3.10;1.63;;;;;;;-145.49;100.00;62790.56;5045519;28;20045;-80
2022/09/17 10:28:54;;;;;;;2.80;1.50;;;;;;;-145.49;100.00;62790.56;5030854;28;20109;-79
2022/09/17 10:31:23;;;;;;;4.05;2.10;;;;;;;-145.49;100.00;62790.56;5041921;28;20045;-79
2022/09/17 10:34:03;;;;;;;3.97;1.33;;;;;;;-145.49;100.00;62790.56;5028784;28;20041;-79
2022/09/17 10:36:39;;;;;;;3.80;3.28;;;;;;;-145.49;100.00;62790.56;5031667;28;20044;-79
2022/09/17 10:39:26;;;;;;;2.88;1.70;;;;;;;-145.49;100.00;62790.56;5033517;28;20460;-79
2022/09/17 10:42:01;;;;;;;5.30;1.77;;;;;;;-145.49;100.00;62790.56;5028703;28;20044;-79
2022/09/17 10:44:30;;;;;;;5.00;1.70;;;;;;;-145.49;100.00;62790.56;5027664;28;20479;-80
2022/09/17 10:47:23;;;;;;;2.10;1.45;;;;;;;-145.49;100.00;62790.56;5027648;28;20037;-81
2022/09/17 10:50:17;;;;;;;5.32;2.13;;;;;;;-145.49;100.00;62790.56;5030290;28;20048;-79
2022/09/17 10:52:55;;;;;;;4.13;2.22;;;;;;;-145.49;100.00;62790.56;5043565;28;20043;-79
2022/09/17 10:55:39;;;;;;;5.80;1.95;;;;;;;-145.49;100.00;62790.56;5046457;28;20033;-79
2022/09/17 10:58:06;;;;;;;6.03;2.05;;;;;;;-145.49;100.00;62790.56;5028517;28;20041;-80
2022/09/17 11:01:07;;;;;;;5.82;2.10;;;;;;;-145.49;100.00;62790.56;5029648;28;20034;-78
2022/09/17 11:03:55;;;;;;;6.07;1.40;;;;;;;-145.49;100.00;62790.56;5023017;28;20052;-80
2022/09/17 11:06:24;;;;;;;2.70;1.60;;;;;;;-145.49;100.00;62790.56;5027032;28;20041;-79
2022/09/17 11:09:28;;;;;;;6.82;1.40;;;;;;;-145.49;100.00;62790.56;5032002;28;20520;-78
2022/09/17 11:12:08;;;;;;;4.60;1.48;;;;;;;-145.49;100.00;62790.56;5032219;28;20038;-79
2022/09/17 11:14:58;;;;;;;1.90;1.40;;;;;;;-145.49;100.00;62790.56;5042586;28;20045;-79
2022/09/17 11:17:49;;;;;;;2.78;1.70;;;;;;;-145.49;100.00;62790.56;5029134;28;20040;-78
2022/09/17 11:20:43;;;;;;;3.55;1.63;;;;;;;-145.49;100.00;62790.56;5032828;28;20033;-79
2022/09/17 11:23:31;;;;;;;2.13;1.60;;;;;;;-145.49;100.00;62790.56;5028800;28;20029;-78
2022/09/17 11:26:20;;;;;;;5.07;2.70;;;;;;;-145.49;100.00;62790.56;5027496;28;20402;-78
2022/09/17 11:29:04;;;;;;;4.28;1.85;;;;;;;-145.49;100.00;62790.56;5031159;28;20045;-80
2022/09/17 11:32:15;;;;;;;3.30;1.05;;;;;;;-145.49;100.00;62790.56;5028278;28;20044;-79
2022/09/17 11:35:25;;;;;;;3.85;1.50;;;;;;;-145.49;100.00;62790.56;5013948;28;20033;-78
2022/09/17 11:38:21;;;;;;;5.75;2.08;;;;;;;-145.49;100.00;62790.56;5024297;28;20064;-78
2022/09/17 11:41:01;;;;;;;2.97;1.52;;;;;;;-145.49;100.00;62790.56;5026477;28;20045;-79
2022/09/17 11:43:33;;;;;;;2.60;2.05;;;;;;;-145.49;100.00;62790.56;5030209;28;20080;-79
2022/09/17 11:46:12;;;;;;;4.28;1.30;;;;;;;-145.49;100.00;62790.56;5030407;28;20316;-78
2022/09/17 11:48:45;;;;;;;3.28;1.40;;;;;;;-145.49;100.00;62790.56;5031073;28;20033;-78
2022/09/17 11:51:26;;;;;;;5.37;2.40;;;;;;;-145.49;100.00;62790.56;5028379;28;20029;-78
2022/09/17 11:54:06;;;;;;;4.95;2.30;;;;;;;-145.49;100.00;62790.56;5028975;28;20037;-78
2022/09/17 11:56:42;;;;;;;1.40;1.00;;;;;;;-145.49;100.00;62790.56;5024489;28;20034;-78
2022/09/17 11:59:18;;;;;;;3.05;0.98;;;;;;;-145.49;100.00;62790.56;5024006;28;20299;-79
2022/09/17 12:01:56;;;;;;;8.30;1.65;;;;;;;-145.49;100.00;62790.56;5025366;28;20040;-79
2022/09/17 12:04:44;;;;;;;2.22;1.40;;;;;;;-145.49;100.00;62790.56;5027772;28;20105;-79